Terminal Aerodrome Forecast
Issued by NWS San Angelo, TX

Home | Current Version | Previous Version | Text Only | Print | Product List | Glossary On
Versions: 1 2 3 4 5 6 7 8 9 10 11 12 13 14 15 16 17 18 19 20 21 22 23 24 25 26
000
FTUS44 KSJT 032000 AAA
TAFSJT
TAF AMD
KSJT 032048Z 0321/0418 20011G17KT P6SM SCT025
     FM040000 VRB06KT P6SM SCT020 BKN100
     FM040900 VRB04KT 6SM BR SCT008=

USA.gov is the U.S. government's official web portal to all federal, state and local government web resources and services.